NKS3 KEWR-KDTW
Flight info
| Callsign | NKS3 |
|---|---|
| Flight time | 1h 30m |
| Altitude | 38000 |
| Route | GAYEL J95 CFB TRAAD JACCI FERRL2 |
| Aircraft | A319/M-SDE3FGHIRWY/LB1 |
Departure
| Time | 2026-05-06 02:38 |
|---|---|
| Airport | Newark Liberty International Airport (KEWR) |
Arrival
| Time | 2026-05-06 04:08 |
|---|---|
| Airport | Detroit Metropolitan Wayne County Airport (KDTW) |
| Time | Latitude | Longitude | Altitude | Speed | Heading |
|---|---|---|---|---|---|
| 2026-05-06 02:18 | 40.69600 | -74.17348 | 23 ft | 0 kts | 142° |
| 2026-05-06 02:28 | 40.69619 | -74.17368 | 23 ft | 4 kts | 131° |
| 2026-05-06 02:28 | 40.69631 | -74.17396 | 25 ft | 4 kts | 89° |
| 2026-05-06 02:28 | 40.69627 | -74.17414 | 23 ft | 0 kts | 40° |
| 2026-05-06 02:31 | 40.69639 | -74.17401 | 22 ft | 4 kts | 40° |
| 2026-05-06 02:31 | 40.69666 | -74.17371 | 24 ft | 6 kts | 40° |
| 2026-05-06 02:32 | 40.69706 | -74.17325 | 24 ft | 9 kts | 40° |
| 2026-05-06 02:32 | 40.69763 | -74.17317 | 22 ft | 9 kts | 4° |
| 2026-05-06 02:32 | 40.69820 | -74.17310 | 22 ft | 8 kts | 326° |
| 2026-05-06 02:32 | 40.69864 | -74.17375 | 24 ft | 10 kts | 313° |
| 2026-05-06 02:33 | 40.69935 | -74.17386 | 22 ft | 12 kts | 2° |
| 2026-05-06 02:33 | 40.69991 | -74.17382 | 22 ft | 13 kts | 7° |
| 2026-05-06 02:34 | 40.70305 | -74.17340 | 22 ft | 11 kts | 4° |
| 2026-05-06 02:34 | 40.70338 | -74.17301 | 24 ft | 10 kts | 73° |
| 2026-05-06 02:34 | 40.70336 | -74.17200 | 22 ft | 12 kts | 96° |
| 2026-05-06 02:34 | 40.70328 | -74.17083 | 22 ft | 14 kts | 95° |
| 2026-05-06 02:35 | 40.70315 | -74.16892 | 22 ft | 17 kts | 95° |
| 2026-05-06 02:35 | 40.70309 | -74.16805 | 22 ft | 13 kts | 95° |
| 2026-05-06 02:35 | 40.70300 | -74.16678 | 22 ft | 15 kts | 95° |
| 2026-05-06 02:35 | 40.70291 | -74.16545 | 22 ft | 13 kts | 95° |
| 2026-05-06 02:36 | 40.70283 | -74.16417 | 22 ft | 11 kts | 88° |
| 2026-05-06 02:36 | 40.70318 | -74.16281 | 22 ft | 13 kts | 58° |
| 2026-05-06 02:36 | 40.70327 | -74.16226 | 23 ft | 8 kts | 108° |
| 2026-05-06 02:36 | 40.70276 | -74.16207 | 22 ft | 10 kts | 206° |
| 2026-05-06 02:37 | 40.70164 | -74.16278 | 20 ft | 37 kts | 205° |
| 2026-05-06 02:37 | 40.69756 | -74.16536 | 21 ft | 92 kts | 206° |
| 2026-05-06 02:37 | 40.69018 | -74.16996 | 27 ft | 141 kts | 205° |
| 2026-05-06 02:37 | 40.68141 | -74.17558 | 602 ft | 138 kts | 206° |
| 2026-05-06 02:38 | 40.67273 | -74.18141 | 1176 ft | 142 kts | 209° |
| 2026-05-06 02:38 | 40.66594 | -74.19081 | 1938 ft | 142 kts | 227° |
| 2026-05-06 02:38 | 40.65987 | -74.20211 | 2340 ft | 165 kts | 242° |
| 2026-05-06 02:38 | 40.65568 | -74.21761 | 2710 ft | 193 kts | 247° |
| 2026-05-06 02:39 | 40.65125 | -74.23546 | 3214 ft | 216 kts | 249° |
| 2026-05-06 02:39 | 40.64683 | -74.25465 | 3981 ft | 226 kts | 251° |
| 2026-05-06 02:39 | 40.64274 | -74.27494 | 4902 ft | 234 kts | 259° |
| 2026-05-06 02:39 | 40.64461 | -74.29671 | 5786 ft | 251 kts | 286° |
| 2026-05-06 02:40 | 40.65558 | -74.31544 | 6653 ft | 274 kts | 318° |
| 2026-05-06 02:40 | 40.67399 | -74.32425 | 7534 ft | 293 kts | 347° |
| 2026-05-06 02:40 | 40.69442 | -74.32638 | 8485 ft | 297 kts | 353° |
| 2026-05-06 02:40 | 40.71518 | -74.32709 | 9432 ft | 300 kts | 355° |
| 2026-05-06 02:41 | 40.73614 | -74.32734 | 10258 ft | 305 kts | 355° |
| 2026-05-06 02:41 | 40.75790 | -74.32770 | 10567 ft | 328 kts | 355° |
| 2026-05-06 02:41 | 40.78116 | -74.32832 | 11112 ft | 339 kts | 355° |
| 2026-05-06 02:41 | 40.80499 | -74.32913 | 11812 ft | 345 kts | 354° |
| 2026-05-06 02:42 | 40.82916 | -74.33013 | 12534 ft | 351 kts | 354° |
| 2026-05-06 02:42 | 40.85377 | -74.33125 | 13250 ft | 356 kts | 354° |
| 2026-05-06 02:42 | 40.87868 | -74.33246 | 13927 ft | 361 kts | 354° |
| 2026-05-06 02:42 | 40.90392 | -74.33369 | 14585 ft | 365 kts | 354° |
| 2026-05-06 02:43 | 40.92943 | -74.33492 | 15266 ft | 369 kts | 353° |
| 2026-05-06 02:43 | 40.95482 | -74.33610 | 15927 ft | 372 kts | 353° |
| 2026-05-06 02:43 | 40.98079 | -74.33727 | 16596 ft | 375 kts | 353° |
| 2026-05-06 02:43 | 41.00701 | -74.33848 | 17254 ft | 378 kts | 353° |
| 2026-05-06 02:44 | 41.03346 | -74.33974 | 17894 ft | 382 kts | 353° |
| 2026-05-06 02:44 | 41.06015 | -74.34099 | 18511 ft | 385 kts | 353° |
| 2026-05-06 02:44 | 41.08706 | -74.34226 | 19050 ft | 389 kts | 353° |
| 2026-05-06 02:44 | 41.11430 | -74.34355 | 19586 ft | 394 kts | 353° |
| 2026-05-06 02:45 | 41.14136 | -74.34483 | 20115 ft | 398 kts | 353° |
| 2026-05-06 02:45 | 41.16931 | -74.34616 | 20647 ft | 403 kts | 353° |
| 2026-05-06 02:45 | 41.19744 | -74.34744 | 21186 ft | 406 kts | 353° |
| 2026-05-06 02:45 | 41.22580 | -74.34872 | 21714 ft | 410 kts | 352° |
| 2026-05-06 02:46 | 41.25448 | -74.35007 | 22255 ft | 414 kts | 352° |
| 2026-05-06 02:46 | 41.28340 | -74.35140 | 22794 ft | 417 kts | 352° |
| 2026-05-06 02:46 | 41.31252 | -74.35275 | 23318 ft | 421 kts | 352° |
| 2026-05-06 02:46 | 41.34187 | -74.35460 | 23797 ft | 422 kts | 348° |
| 2026-05-06 02:47 | 41.37021 | -74.36276 | 24264 ft | 414 kts | 334° |
| 2026-05-06 02:47 | 41.39607 | -74.37848 | 24723 ft | 405 kts | 322° |
| 2026-05-06 02:47 | 41.41818 | -74.40019 | 25183 ft | 396 kts | 310° |
| 2026-05-06 02:47 | 41.43639 | -74.42719 | 25641 ft | 389 kts | 299° |
| 2026-05-06 02:48 | 41.45043 | -74.45775 | 26089 ft | 386 kts | 294° |
| 2026-05-06 02:48 | 41.46377 | -74.48891 | 26542 ft | 388 kts | 294° |
| 2026-05-06 02:48 | 41.47726 | -74.52021 | 26985 ft | 390 kts | 294° |
| 2026-05-06 02:48 | 41.49085 | -74.55160 | 27404 ft | 392 kts | 295° |
| 2026-05-06 02:49 | 41.50451 | -74.58321 | 27836 ft | 394 kts | 295° |
| 2026-05-06 02:49 | 41.51822 | -74.61494 | 28282 ft | 396 kts | 295° |
| 2026-05-06 02:49 | 41.53184 | -74.64646 | 28698 ft | 398 kts | 295° |
| 2026-05-06 02:49 | 41.54569 | -74.67857 | 29119 ft | 400 kts | 295° |
| 2026-05-06 02:50 | 41.55960 | -74.71092 | 29539 ft | 403 kts | 295° |
| 2026-05-06 02:50 | 41.57355 | -74.74344 | 29958 ft | 405 kts | 295° |
| 2026-05-06 02:50 | 41.58757 | -74.77615 | 30312 ft | 407 kts | 295° |
| 2026-05-06 02:50 | 41.60162 | -74.80899 | 30675 ft | 408 kts | 295° |
| 2026-05-06 02:51 | 41.61576 | -74.84202 | 31007 ft | 410 kts | 296° |
| 2026-05-06 02:51 | 41.62994 | -74.87518 | 31343 ft | 412 kts | 296° |
| 2026-05-06 02:51 | 41.64420 | -74.90852 | 31678 ft | 413 kts | 296° |
| 2026-05-06 02:51 | 41.65847 | -74.94190 | 32009 ft | 415 kts | 296° |
| 2026-05-06 02:52 | 41.67257 | -74.97494 | 32428 ft | 414 kts | 296° |
| 2026-05-06 02:52 | 41.68677 | -75.00822 | 32889 ft | 411 kts | 296° |
| 2026-05-06 02:52 | 41.70088 | -75.04142 | 33384 ft | 409 kts | 296° |
| 2026-05-06 02:52 | 41.71486 | -75.07442 | 33901 ft | 406 kts | 296° |
| 2026-05-06 02:53 | 41.72871 | -75.10715 | 34401 ft | 402 kts | 296° |
| 2026-05-06 02:53 | 41.74243 | -75.13957 | 34878 ft | 398 kts | 296° |
| 2026-05-06 02:53 | 41.75603 | -75.17171 | 35348 ft | 395 kts | 296° |
| 2026-05-06 02:53 | 41.76953 | -75.20359 | 35800 ft | 392 kts | 297° |
| 2026-05-06 02:54 | 41.78274 | -75.23476 | 36234 ft | 389 kts | 297° |
| 2026-05-06 02:54 | 41.79600 | -75.26612 | 36660 ft | 385 kts | 297° |
| 2026-05-06 02:54 | 41.80914 | -75.29731 | 37063 ft | 383 kts | 297° |
| 2026-05-06 02:54 | 41.82218 | -75.32828 | 37448 ft | 380 kts | 297° |
| 2026-05-06 02:55 | 41.83514 | -75.35906 | 37789 ft | 379 kts | 297° |
| 2026-05-06 02:55 | 41.86084 | -75.42026 | 37863 ft | 375 kts | 297° |
| 2026-05-06 02:56 | 41.88601 | -75.48040 | 37862 ft | 370 kts | 297° |
| 2026-05-06 02:56 | 41.91115 | -75.54064 | 37860 ft | 369 kts | 297° |
| 2026-05-06 02:57 | 41.93627 | -75.60079 | 37859 ft | 369 kts | 297° |
| 2026-05-06 02:57 | 41.96136 | -75.66102 | 37857 ft | 369 kts | 297° |
| 2026-05-06 02:58 | 41.98619 | -75.72085 | 37857 ft | 369 kts | 297° |
| 2026-05-06 02:58 | 42.01122 | -75.78112 | 37856 ft | 369 kts | 297° |
| 2026-05-06 02:59 | 42.03614 | -75.84127 | 37883 ft | 367 kts | 297° |
| 2026-05-06 02:59 | 42.06087 | -75.90122 | 37880 ft | 365 kts | 297° |
| 2026-05-06 03:00 | 42.08526 | -75.96059 | 37873 ft | 364 kts | 297° |
| 2026-05-06 03:00 | 42.10980 | -76.02021 | 37872 ft | 364 kts | 297° |
| 2026-05-06 03:01 | 42.13428 | -76.07979 | 37871 ft | 363 kts | 297° |
| 2026-05-06 03:01 | 42.15589 | -76.14097 | 37867 ft | 361 kts | 285° |
| 2026-05-06 03:02 | 42.16312 | -76.20787 | 37885 ft | 361 kts | 278° |
| 2026-05-06 03:02 | 42.16820 | -76.27452 | 37885 ft | 359 kts | 278° |
| 2026-05-06 03:03 | 42.17330 | -76.34143 | 37881 ft | 358 kts | 278° |
| 2026-05-06 03:03 | 42.17839 | -76.40819 | 37879 ft | 358 kts | 278° |
| 2026-05-06 03:04 | 42.18338 | -76.47488 | 37875 ft | 358 kts | 278° |
| 2026-05-06 03:04 | 42.18840 | -76.54106 | 37902 ft | 356 kts | 278° |
| 2026-05-06 03:05 | 42.19341 | -76.60732 | 37898 ft | 354 kts | 278° |
| 2026-05-06 03:05 | 42.19827 | -76.67331 | 37891 ft | 353 kts | 278° |
| 2026-05-06 03:06 | 42.20303 | -76.73871 | 37882 ft | 352 kts | 278° |
| 2026-05-06 03:06 | 42.20772 | -76.80438 | 37878 ft | 352 kts | 278° |
| 2026-05-06 03:07 | 42.21244 | -76.87004 | 37891 ft | 351 kts | 278° |
| 2026-05-06 03:07 | 42.21708 | -76.93554 | 37890 ft | 350 kts | 278° |
| 2026-05-06 03:08 | 42.22171 | -77.00070 | 37883 ft | 348 kts | 278° |
| 2026-05-06 03:08 | 42.22633 | -77.06525 | 37882 ft | 348 kts | 278° |
| 2026-05-06 03:09 | 42.23089 | -77.13019 | 37883 ft | 348 kts | 278° |
| 2026-05-06 03:09 | 42.23537 | -77.19511 | 37868 ft | 347 kts | 278° |
| 2026-05-06 03:10 | 42.23978 | -77.25996 | 37885 ft | 347 kts | 278° |
| 2026-05-06 03:10 | 42.24417 | -77.32432 | 37882 ft | 346 kts | 278° |
| 2026-05-06 03:11 | 42.24855 | -77.38896 | 37882 ft | 345 kts | 278° |
| 2026-05-06 03:11 | 42.25284 | -77.45348 | 37880 ft | 345 kts | 277° |
| 2026-05-06 03:12 | 42.25727 | -77.51800 | 37872 ft | 344 kts | 281° |
| 2026-05-06 03:12 | 42.26800 | -77.58033 | 37879 ft | 343 kts | 284° |
| 2026-05-06 03:13 | 42.27935 | -77.64284 | 37885 ft | 342 kts | 284° |
| 2026-05-06 03:13 | 42.29062 | -77.70523 | 37895 ft | 342 kts | 284° |
| 2026-05-06 03:14 | 42.30182 | -77.76754 | 37890 ft | 341 kts | 284° |
| 2026-05-06 03:14 | 42.31288 | -77.82940 | 37880 ft | 341 kts | 284° |
| 2026-05-06 03:15 | 42.32403 | -77.89169 | 37881 ft | 341 kts | 284° |
| 2026-05-06 03:15 | 42.33508 | -77.95398 | 37883 ft | 341 kts | 284° |
| 2026-05-06 03:16 | 42.34605 | -78.01632 | 37893 ft | 341 kts | 284° |
| 2026-05-06 03:16 | 42.35706 | -78.07861 | 37886 ft | 341 kts | 284° |
| 2026-05-06 03:17 | 42.36796 | -78.14059 | 37891 ft | 341 kts | 284° |
| 2026-05-06 03:17 | 42.37894 | -78.20292 | 37889 ft | 341 kts | 284° |
| 2026-05-06 03:18 | 42.38985 | -78.26533 | 37889 ft | 341 kts | 284° |
| 2026-05-06 03:18 | 42.40067 | -78.32771 | 37888 ft | 341 kts | 284° |
| 2026-05-06 03:19 | 42.41143 | -78.38969 | 37893 ft | 341 kts | 284° |
| 2026-05-06 03:19 | 42.42225 | -78.45207 | 37888 ft | 341 kts | 284° |
| 2026-05-06 03:20 | 42.43834 | -78.54573 | 37886 ft | 341 kts | 284° |
| 2026-05-06 03:20 | 42.44905 | -78.60818 | 37883 ft | 341 kts | 284° |
| 2026-05-06 03:21 | 42.45965 | -78.67023 | 37906 ft | 340 kts | 283° |
| 2026-05-06 03:21 | 42.46966 | -78.73272 | 37927 ft | 339 kts | 278° |
| 2026-05-06 03:22 | 42.47209 | -78.79650 | 37891 ft | 339 kts | 275° |
| 2026-05-06 03:22 | 42.47419 | -78.86028 | 37854 ft | 339 kts | 275° |
| 2026-05-06 03:23 | 42.47628 | -78.92377 | 37858 ft | 340 kts | 275° |
| 2026-05-06 03:23 | 42.47843 | -78.98775 | 37859 ft | 340 kts | 275° |
| 2026-05-06 03:24 | 42.48044 | -79.05181 | 37862 ft | 341 kts | 275° |
| 2026-05-06 03:24 | 42.48244 | -79.11585 | 37888 ft | 340 kts | 275° |
| 2026-05-06 03:25 | 42.48433 | -79.17932 | 37886 ft | 339 kts | 275° |
| 2026-05-06 03:25 | 42.48628 | -79.24310 | 37886 ft | 339 kts | 275° |
| 2026-05-06 03:26 | 42.48822 | -79.30681 | 37887 ft | 339 kts | 275° |
| 2026-05-06 03:26 | 42.49008 | -79.37054 | 37884 ft | 338 kts | 275° |
| 2026-05-06 03:27 | 42.49185 | -79.43423 | 37896 ft | 338 kts | 275° |
| 2026-05-06 03:27 | 42.49361 | -79.49752 | 37891 ft | 338 kts | 275° |
| 2026-05-06 03:28 | 42.49537 | -79.56117 | 37889 ft | 338 kts | 275° |
| 2026-05-06 03:28 | 42.49714 | -79.62481 | 37885 ft | 338 kts | 275° |
| 2026-05-06 03:29 | 42.49882 | -79.68847 | 37878 ft | 338 kts | 275° |
| 2026-05-06 03:29 | 42.50043 | -79.75216 | 37879 ft | 338 kts | 275° |
| 2026-05-06 03:30 | 42.50197 | -79.81542 | 37887 ft | 338 kts | 274° |
| 2026-05-06 03:30 | 42.50353 | -79.87907 | 37889 ft | 338 kts | 274° |
| 2026-05-06 03:31 | 42.50508 | -79.94268 | 37885 ft | 338 kts | 274° |
| 2026-05-06 03:31 | 42.50659 | -80.00629 | 37883 ft | 338 kts | 274° |
| 2026-05-06 03:32 | 42.50807 | -80.06947 | 37884 ft | 338 kts | 274° |
| 2026-05-06 03:32 | 42.50945 | -80.13307 | 37882 ft | 338 kts | 274° |
| 2026-05-06 03:33 | 42.51084 | -80.19669 | 37899 ft | 338 kts | 274° |
| 2026-05-06 03:33 | 42.51220 | -80.25982 | 37896 ft | 337 kts | 274° |
| 2026-05-06 03:34 | 42.51351 | -80.32332 | 37891 ft | 337 kts | 274° |
| 2026-05-06 03:34 | 42.51481 | -80.38675 | 37888 ft | 337 kts | 274° |
| 2026-05-06 03:35 | 42.51609 | -80.45019 | 37886 ft | 337 kts | 274° |
| 2026-05-06 03:35 | 42.51729 | -80.51362 | 37878 ft | 337 kts | 274° |
| 2026-05-06 03:36 | 42.51842 | -80.57665 | 37907 ft | 336 kts | 274° |
| 2026-05-06 03:36 | 42.51900 | -80.60846 | 37747 ft | 342 kts | 273° |
| 2026-05-06 03:36 | 42.51954 | -80.64084 | 37478 ft | 344 kts | 273° |
| 2026-05-06 03:37 | 42.51993 | -80.67328 | 37210 ft | 344 kts | 272° |
| 2026-05-06 03:37 | 42.52025 | -80.70564 | 36944 ft | 343 kts | 272° |
| 2026-05-06 03:37 | 42.52056 | -80.73780 | 36588 ft | 340 kts | 272° |
| 2026-05-06 03:37 | 42.52086 | -80.76964 | 36204 ft | 336 kts | 272° |
| 2026-05-06 03:38 | 42.52117 | -80.80071 | 35796 ft | 333 kts | 272° |
| 2026-05-06 03:38 | 42.52148 | -80.83196 | 35370 ft | 330 kts | 271° |
| 2026-05-06 03:38 | 42.52179 | -80.86295 | 34946 ft | 328 kts | 271° |
| 2026-05-06 03:38 | 42.52208 | -80.89369 | 34510 ft | 325 kts | 271° |
| 2026-05-06 03:39 | 42.52234 | -80.92428 | 34085 ft | 323 kts | 270° |
| 2026-05-06 03:39 | 42.52258 | -80.95466 | 33600 ft | 321 kts | 270° |
| 2026-05-06 03:39 | 42.52280 | -80.98478 | 33149 ft | 318 kts | 270° |
| 2026-05-06 03:39 | 42.52301 | -81.01459 | 32717 ft | 315 kts | 269° |
| 2026-05-06 03:40 | 42.52323 | -81.04410 | 32291 ft | 312 kts | 269° |
| 2026-05-06 03:40 | 42.52344 | -81.07335 | 31874 ft | 309 kts | 269° |
| 2026-05-06 03:40 | 42.52364 | -81.10202 | 31471 ft | 307 kts | 269° |
| 2026-05-06 03:40 | 42.52383 | -81.13085 | 31066 ft | 305 kts | 269° |
| 2026-05-06 03:41 | 42.52403 | -81.15959 | 30671 ft | 304 kts | 269° |
| 2026-05-06 03:41 | 42.52424 | -81.18823 | 30283 ft | 303 kts | 268° |
| 2026-05-06 03:41 | 42.52443 | -81.21680 | 29884 ft | 303 kts | 268° |
| 2026-05-06 03:41 | 42.52458 | -81.24527 | 29473 ft | 301 kts | 268° |
| 2026-05-06 03:42 | 42.52469 | -81.27348 | 29103 ft | 298 kts | 268° |
| 2026-05-06 03:42 | 42.52482 | -81.30138 | 28743 ft | 295 kts | 268° |
| 2026-05-06 03:42 | 42.52498 | -81.32865 | 28400 ft | 291 kts | 268° |
| 2026-05-06 03:42 | 42.52513 | -81.35594 | 28057 ft | 288 kts | 267° |
| 2026-05-06 03:43 | 42.52433 | -81.38279 | 27713 ft | 283 kts | 262° |
| 2026-05-06 03:43 | 42.52238 | -81.40917 | 27365 ft | 280 kts | 262° |
| 2026-05-06 03:43 | 42.52045 | -81.43532 | 27022 ft | 278 kts | 262° |
| 2026-05-06 03:43 | 42.51852 | -81.46139 | 26675 ft | 277 kts | 262° |
| 2026-05-06 03:44 | 42.51659 | -81.48734 | 26321 ft | 276 kts | 262° |
| 2026-05-06 03:44 | 42.51466 | -81.51321 | 25956 ft | 276 kts | 262° |
| 2026-05-06 03:44 | 42.51272 | -81.53901 | 25600 ft | 275 kts | 261° |
| 2026-05-06 03:44 | 42.51079 | -81.56473 | 25234 ft | 274 kts | 261° |
| 2026-05-06 03:45 | 42.50887 | -81.59003 | 24873 ft | 273 kts | 261° |
| 2026-05-06 03:45 | 42.50692 | -81.61559 | 24498 ft | 272 kts | 261° |
| 2026-05-06 03:45 | 42.50496 | -81.64111 | 24120 ft | 272 kts | 261° |
| 2026-05-06 03:45 | 42.50303 | -81.66657 | 23753 ft | 272 kts | 261° |
| 2026-05-06 03:46 | 42.50110 | -81.69208 | 23353 ft | 272 kts | 261° |
| 2026-05-06 03:46 | 42.49915 | -81.71761 | 22933 ft | 272 kts | 261° |
| 2026-05-06 03:46 | 42.49719 | -81.74302 | 22552 ft | 271 kts | 261° |
| 2026-05-06 03:46 | 42.49523 | -81.76834 | 22179 ft | 270 kts | 261° |
| 2026-05-06 03:47 | 42.49328 | -81.79353 | 21807 ft | 268 kts | 260° |
| 2026-05-06 03:47 | 42.49136 | -81.81827 | 21434 ft | 267 kts | 260° |
| 2026-05-06 03:47 | 42.48940 | -81.84326 | 21060 ft | 266 kts | 260° |
| 2026-05-06 03:47 | 42.48745 | -81.86815 | 20698 ft | 265 kts | 260° |
| 2026-05-06 03:48 | 42.48554 | -81.89298 | 20322 ft | 265 kts | 260° |
| 2026-05-06 03:48 | 42.48363 | -81.91774 | 19954 ft | 264 kts | 260° |
| 2026-05-06 03:48 | 42.48170 | -81.94248 | 19593 ft | 264 kts | 260° |
| 2026-05-06 03:48 | 42.47975 | -81.96718 | 19213 ft | 264 kts | 259° |
| 2026-05-06 03:49 | 42.47778 | -81.99185 | 18846 ft | 264 kts | 259° |
| 2026-05-06 03:49 | 42.47583 | -82.01620 | 18482 ft | 264 kts | 259° |
| 2026-05-06 03:49 | 42.47386 | -82.04090 | 18107 ft | 264 kts | 259° |
| 2026-05-06 03:49 | 42.47190 | -82.06562 | 17698 ft | 264 kts | 259° |
| 2026-05-06 03:50 | 42.46994 | -82.09025 | 17327 ft | 262 kts | 259° |
| 2026-05-06 03:50 | 42.46798 | -82.11471 | 16968 ft | 261 kts | 259° |
| 2026-05-06 03:50 | 42.46602 | -82.13906 | 16609 ft | 259 kts | 259° |
| 2026-05-06 03:50 | 42.46406 | -82.16327 | 16255 ft | 258 kts | 260° |
| 2026-05-06 03:51 | 42.46210 | -82.18738 | 15901 ft | 257 kts | 260° |
| 2026-05-06 03:51 | 42.46014 | -82.21140 | 15552 ft | 256 kts | 260° |
| 2026-05-06 03:51 | 42.45824 | -82.23502 | 15215 ft | 255 kts | 260° |
| 2026-05-06 03:51 | 42.45630 | -82.25889 | 14864 ft | 255 kts | 260° |
| 2026-05-06 03:52 | 42.45434 | -82.28270 | 14515 ft | 254 kts | 260° |
| 2026-05-06 03:52 | 42.45239 | -82.30646 | 14176 ft | 254 kts | 261° |
| 2026-05-06 03:52 | 42.45042 | -82.33019 | 13834 ft | 253 kts | 260° |
| 2026-05-06 03:52 | 42.44789 | -82.35426 | 13440 ft | 263 kts | 258° |
| 2026-05-06 03:53 | 42.44491 | -82.37887 | 13044 ft | 266 kts | 258° |
| 2026-05-06 03:53 | 42.44182 | -82.40357 | 12772 ft | 266 kts | 258° |
| 2026-05-06 03:53 | 42.43873 | -82.42824 | 12417 ft | 266 kts | 258° |
| 2026-05-06 03:53 | 42.43570 | -82.45255 | 12048 ft | 265 kts | 258° |
| 2026-05-06 03:54 | 42.43269 | -82.47704 | 11670 ft | 264 kts | 258° |
| 2026-05-06 03:54 | 42.42970 | -82.50146 | 11294 ft | 263 kts | 258° |
| 2026-05-06 03:54 | 42.42670 | -82.52580 | 10917 ft | 262 kts | 258° |
| 2026-05-06 03:54 | 42.42370 | -82.55011 | 10543 ft | 262 kts | 258° |
| 2026-05-06 03:55 | 42.42071 | -82.57436 | 10170 ft | 261 kts | 258° |
| 2026-05-06 03:55 | 42.41774 | -82.59863 | 9798 ft | 261 kts | 258° |
| 2026-05-06 03:55 | 42.41479 | -82.62284 | 9393 ft | 261 kts | 258° |
| 2026-05-06 03:55 | 42.41183 | -82.64696 | 9004 ft | 259 kts | 258° |
| 2026-05-06 03:56 | 42.40891 | -82.67066 | 8648 ft | 258 kts | 259° |
| 2026-05-06 03:56 | 42.40598 | -82.69459 | 8274 ft | 257 kts | 259° |
| 2026-05-06 03:56 | 42.40307 | -82.71844 | 7919 ft | 257 kts | 259° |
| 2026-05-06 03:56 | 42.40015 | -82.74228 | 7554 ft | 257 kts | 260° |
| 2026-05-06 03:57 | 42.39887 | -82.76635 | 7185 ft | 258 kts | 272° |
| 2026-05-06 03:57 | 42.40205 | -82.79024 | 6876 ft | 258 kts | 287° |
| 2026-05-06 03:57 | 42.40949 | -82.81247 | 6756 ft | 262 kts | 298° |
| 2026-05-06 03:57 | 42.41843 | -82.83398 | 6592 ft | 262 kts | 298° |
| 2026-05-06 03:58 | 42.42731 | -82.85544 | 6444 ft | 258 kts | 298° |
| 2026-05-06 03:58 | 42.43589 | -82.87624 | 6343 ft | 248 kts | 298° |
| 2026-05-06 03:58 | 42.44403 | -82.89606 | 6237 ft | 240 kts | 298° |
| 2026-05-06 03:58 | 42.45199 | -82.91548 | 6120 ft | 232 kts | 298° |
| 2026-05-06 03:59 | 42.45965 | -82.93417 | 6019 ft | 223 kts | 298° |
| 2026-05-06 03:59 | 42.46699 | -82.95199 | 6015 ft | 211 kts | 298° |
| 2026-05-06 03:59 | 42.47410 | -82.96922 | 6017 ft | 209 kts | 298° |
| 2026-05-06 03:59 | 42.48116 | -82.98631 | 6016 ft | 208 kts | 298° |
| 2026-05-06 04:00 | 42.48702 | -83.00409 | 6014 ft | 206 kts | 284° |
| 2026-05-06 04:00 | 42.48880 | -83.02328 | 6016 ft | 206 kts | 272° |
| 2026-05-06 04:00 | 42.48944 | -83.04267 | 6017 ft | 207 kts | 273° |
| 2026-05-06 04:00 | 42.49012 | -83.06187 | 6019 ft | 207 kts | 273° |
| 2026-05-06 04:01 | 42.49058 | -83.08131 | 6018 ft | 207 kts | 266° |
| 2026-05-06 04:01 | 42.48745 | -83.10039 | 5985 ft | 210 kts | 249° |
| 2026-05-06 04:01 | 42.48030 | -83.11753 | 5807 ft | 209 kts | 239° |
| 2026-05-06 04:01 | 42.47254 | -83.13421 | 5663 ft | 209 kts | 240° |
| 2026-05-06 04:02 | 42.46391 | -83.14991 | 5520 ft | 210 kts | 224° |
| 2026-05-06 04:02 | 42.45204 | -83.16156 | 5380 ft | 210 kts | 212° |
| 2026-05-06 04:02 | 42.43965 | -83.17115 | 5237 ft | 200 kts | 210° |
| 2026-05-06 04:02 | 42.42769 | -83.18006 | 5110 ft | 198 kts | 211° |
| 2026-05-06 04:03 | 42.41564 | -83.18902 | 4979 ft | 198 kts | 210° |
| 2026-05-06 04:03 | 42.40362 | -83.19794 | 4786 ft | 195 kts | 210° |
| 2026-05-06 04:03 | 42.39175 | -83.20675 | 4544 ft | 194 kts | 210° |
| 2026-05-06 04:03 | 42.37990 | -83.21554 | 4279 ft | 194 kts | 210° |
| 2026-05-06 04:04 | 42.36807 | -83.22432 | 4012 ft | 194 kts | 211° |
| 2026-05-06 04:04 | 42.35619 | -83.23312 | 3752 ft | 195 kts | 211° |
| 2026-05-06 04:04 | 42.34431 | -83.24192 | 3487 ft | 195 kts | 211° |
| 2026-05-06 04:04 | 42.33256 | -83.25062 | 3260 ft | 189 kts | 211° |
| 2026-05-06 04:05 | 42.32143 | -83.25886 | 2973 ft | 180 kts | 212° |
| 2026-05-06 04:05 | 42.31073 | -83.26677 | 2735 ft | 170 kts | 212° |
| 2026-05-06 04:05 | 42.30080 | -83.27410 | 2523 ft | 153 kts | 213° |
| 2026-05-06 04:05 | 42.29180 | -83.28076 | 2308 ft | 143 kts | 214° |
| 2026-05-06 04:06 | 42.28325 | -83.28709 | 2119 ft | 138 kts | 214° |
| 2026-05-06 04:06 | 42.27490 | -83.29327 | 1930 ft | 135 kts | 214° |
| 2026-05-06 04:06 | 42.26666 | -83.29937 | 1752 ft | 134 kts | 214° |
| 2026-05-06 04:06 | 42.25853 | -83.30538 | 1559 ft | 132 kts | 213° |
| 2026-05-06 04:07 | 42.25049 | -83.31131 | 1379 ft | 131 kts | 211° |
| 2026-05-06 04:07 | 42.24270 | -83.31706 | 1206 ft | 128 kts | 210° |
| 2026-05-06 04:07 | 42.23488 | -83.32284 | 1022 ft | 127 kts | 208° |
| 2026-05-06 04:07 | 42.22723 | -83.32861 | 845 ft | 126 kts | 207° |
| 2026-05-06 04:08 | 42.21954 | -83.33419 | 682 ft | 124 kts | 207° |
| 2026-05-06 04:08 | 42.21306 | -83.33891 | 648 ft | 74 kts | 208° |
| 2026-05-06 04:08 | 42.20970 | -83.34137 | 646 ft | 46 kts | 208° |
| 2026-05-06 04:08 | 42.20734 | -83.34309 | 646 ft | 30 kts | 210° |
| 2026-05-06 04:09 | 42.20615 | -83.34463 | 647 ft | 19 kts | 230° |
| 2026-05-06 04:09 | 42.20566 | -83.34576 | 647 ft | 10 kts | 259° |
| 2026-05-06 04:09 | 42.20580 | -83.34629 | 649 ft | 7 kts | 310° |
| 2026-05-06 04:09 | 42.20662 | -83.34620 | 648 ft | 17 kts | 20° |
| 2026-05-06 04:10 | 42.20772 | -83.34536 | 647 ft | 20 kts | 22° |
| 2026-05-06 04:10 | 42.20911 | -83.34448 | 647 ft | 24 kts | 29° |
| 2026-05-06 04:10 | 42.21055 | -83.34369 | 647 ft | 15 kts | 331° |
| 2026-05-06 04:10 | 42.21061 | -83.34470 | 650 ft | 16 kts | 273° |
| 2026-05-06 04:11 | 42.21115 | -83.34631 | 647 ft | 19 kts | 302° |
| 2026-05-06 04:11 | 42.21192 | -83.34799 | 644 ft | 23 kts | 301° |
| 2026-05-06 04:11 | 42.21298 | -83.34929 | 646 ft | 20 kts | 339° |
| 2026-05-06 04:11 | 42.21417 | -83.35019 | 647 ft | 21 kts | 328° |
| 2026-05-06 04:12 | 42.21512 | -83.35099 | 646 ft | 17 kts | 326° |
| 2026-05-06 04:12 | 42.21614 | -83.35200 | 646 ft | 19 kts | 316° |
| 2026-05-06 04:12 | 42.21719 | -83.35331 | 644 ft | 21 kts | 329° |
| 2026-05-06 04:12 | 42.21869 | -83.35338 | 646 ft | 17 kts | 5° |
| 2026-05-06 04:13 | 42.21958 | -83.35300 | 646 ft | 13 kts | 30° |
| 2026-05-06 04:13 | 42.22041 | -83.35236 | 646 ft | 11 kts | 29° |
| 2026-05-06 04:13 | 42.22095 | -83.35176 | 646 ft | 11 kts | 74° |
| 2026-05-06 04:13 | 42.22094 | -83.35151 | 646 ft | 0 kts | 98° |
| 2026-05-06 04:14 | 42.22093 | -83.35149 | 646 ft | 1 kts | 98° |
| 2026-05-06 04:14 | 42.22100 | -83.35119 | 649 ft | 3 kts | 56° |
| 2026-05-06 04:14 | 42.22109 | -83.35113 | 646 ft | 0 kts | 24° |
| 2026-05-06 04:14 | 42.22121 | -83.35106 | 648 ft | 2 kts | 25° |
| 2026-05-06 04:15 | 42.22133 | -83.35089 | 646 ft | 4 kts | 44° |
| 2026-05-06 04:15 | 42.22179 | -83.35085 | 646 ft | 5 kts | 350° |
| 2026-05-06 04:15 | 42.22209 | -83.35093 | 646 ft | 0 kts | 350° |